Time;durP1;ratioP1;P1;durP2;ratioP2;P2;SDS_P1;SDS_P2;PMS_P1;PMS_P2;Temp;Humidity;BMP_temperature;BMP_pressure;BME280_temperature;BME280_humidity;BME280_pressure;Samples;Min_cycle;Max_cycle;Signal;HPM_P1;HPM_P2
2023/10/10 00:02:19;;;;;;;186.70;14.30;;;;;;;4.67;100.00;99278.98;137325;1276;22121;-82
2023/10/10 00:05:33;;;;;;;164.40;14.10;;;;;;;4.66;100.00;99279.98;137298;1276;22063;-81
2023/10/10 00:08:40;;;;;;;149.40;12.90;;;;;;;4.69;100.00;99283.92;137349;1276;22208;-81
2023/10/10 00:11:42;;;;;;;143.20;14.20;;;;;;;4.67;100.00;99280.90;137396;1276;22080;-81
2023/10/10 00:14:49;;;;;;;93.90;11.80;;;;;;;4.63;100.00;99277.11;137431;1276;22526;-81
2023/10/10 00:17:58;;;;;;;94.00;12.70;;;;;;;4.62;100.00;99278.28;137412;1276;22079;-81
2023/10/10 00:21:08;;;;;;;95.50;12.30;;;;;;;4.61;100.00;99280.47;137437;1276;22062;-81
2023/10/10 00:24:12;;;;;;;93.70;13.10;;;;;;;4.59;100.00;99278.65;137421;1276;22557;-82
2023/10/10 00:27:15;;;;;;;81.20;12.40;;;;;;;4.57;100.00;99273.38;137421;1276;22119;-82
2023/10/10 00:30:22;;;;;;;49.90;11.50;;;;;;;4.54;100.00;99272.77;137434;1276;22200;-81
2023/10/10 00:33:24;;;;;;;73.40;12.00;;;;;;;4.53;100.00;99267.00;137328;1276;22152;-81
2023/10/10 00:36:33;;;;;;;66.50;11.50;;;;;;;4.48;100.00;99271.15;137332;1276;22089;-81
2023/10/10 00:39:36;;;;;;;90.70;13.10;;;;;;;4.47;100.00;99265.56;137346;1276;22276;-81
2023/10/10 00:42:41;;;;;;;90.40;12.50;;;;;;;4.46;100.00;99265.20;137358;1276;22104;-81
2023/10/10 00:45:43;;;;;;;83.60;12.80;;;;;;;4.47;100.00;99264.18;137386;1276;22373;-81
2023/10/10 00:48:48;;;;;;;113.50;12.10;;;;;;;4.49;100.00;99268.25;137378;1276;22053;-80
2023/10/10 00:51:51;;;;;;;;;;;;;;;4.46;100.00;99267.80;137367;1276;22338;-81
2023/10/10 00:54:53;;;;;;;70.50;12.50;;;;;;;4.44;100.00;99264.23;137321;1276;22071;-81
2023/10/10 00:57:58;;;;;;;77.50;13.50;;;;;;;4.43;100.00;99256.98;137343;1276;22037;-80
2023/10/10 01:01:07;;;;;;;83.20;13.90;;;;;;;4.46;100.00;99255.19;137359;1276;22565;-80
2023/10/10 01:04:11;;;;;;;92.70;13.40;;;;;;;4.47;100.00;99251.61;137318;1276;22036;-81
2023/10/10 01:07:18;;;;;;;77.80;13.20;;;;;;;4.46;100.00;99246.77;137329;1274;22083;-81
2023/10/10 01:10:21;;;;;;;85.10;14.20;;;;;;;4.46;100.00;99246.41;137324;1276;22222;-81
2023/10/10 01:13:23;;;;;;;56.10;13.60;;;;;;;4.48;100.00;99244.25;137345;1276;22138;-81
2023/10/10 01:16:27;;;;;;;81.60;12.80;;;;;;;4.51;100.00;99246.41;137345;1276;22129;-81
2023/10/10 01:19:29;;;;;;;94.10;13.80;;;;;;;4.47;100.00;99245.27;137316;1276;22649;-81
2023/10/10 01:22:40;;;;;;;106.60;13.10;;;;;;;4.46;100.00;99246.92;137366;1276;22124;-81
2023/10/10 01:25:44;;;;;;;141.00;13.90;;;;;;;4.42;100.00;99248.98;137356;1276;22113;-81
2023/10/10 01:28:46;;;;;;;91.60;12.90;;;;;;;4.37;100.00;99252.56;137367;1276;22150;-80
2023/10/10 01:31:51;;;;;;;99.20;13.40;;;;;;;4.38;100.00;99252.80;137364;1276;22247;-82
2023/10/10 01:34:54;;;;;;;161.80;19.90;;;;;;;4.39;100.00;99251.64;137347;1276;22289;-82
2023/10/10 01:37:57;;;;;;;141.80;14.30;;;;;;;4.35;100.00;99253.87;137358;1276;22299;-81
2023/10/10 01:41:04;;;;;;;124.40;14.00;;;;;;;4.36;100.00;99259.24;137310;1276;22143;-82
2023/10/10 01:44:11;;;;;;;148.90;13.50;;;;;;;4.36;100.00;99259.77;137343;1276;22178;-81
2023/10/10 01:47:25;;;;;;;177.10;13.50;;;;;;;4.36;100.00;99255.97;137360;1276;22613;-82
2023/10/10 01:50:30;;;;;;;164.80;13.00;;;;;;;4.36;100.00;99258.92;137344;1276;22184;-83
2023/10/10 01:53:32;;;;;;;126.50;12.00;;;;;;;4.37;100.00;99258.95;137341;1276;22122;-81
2023/10/10 01:56:38;;;;;;;131.10;12.30;;;;;;;4.37;100.00;99257.56;137152;1276;205116;-81
2023/10/10 01:59:41;;;;;;;193.20;12.40;;;;;;;4.36;100.00;99256.66;137360;1276;22187;-80
2023/10/10 02:02:43;;;;;;;103.20;11.40;;;;;;;4.37;100.00;99257.58;137386;1276;22070;-84
2023/10/10 02:05:50;;;;;;;151.10;11.40;;;;;;;4.35;100.00;99257.29;137354;1276;22187;-81
2023/10/10 02:08:53;;;;;;;133.80;11.00;;;;;;;4.29;100.00;99261.66;137366;1276;22238;-82
2023/10/10 02:11:55;;;;;;;98.40;10.80;;;;;;;4.26;100.00;99266.20;137313;1276;22064;-82
2023/10/10 02:14:58;;;;;;;65.50;9.40;;;;;;;4.25;100.00;99268.38;137392;1276;22116;-85
2023/10/10 02:18:05;;;;;;;180.40;12.90;;;;;;;4.25;100.00;99270.45;137401;1276;22276;-81
2023/10/10 02:21:09;;;;;;;127.80;10.50;;;;;;;4.21;100.00;99272.86;137437;1273;22048;-83
2023/10/10 02:24:36;;;;;;;85.70;9.80;;;;;;;4.19;100.00;99269.49;137367;1276;22087;-82
2023/10/10 02:27:53;;;;;;;131.30;9.10;;;;;;;4.14;100.00;99269.98;137386;1276;22058;-82
2023/10/10 02:31:02;;;;;;;108.30;9.00;;;;;;;4.09;100.00;99273.70;137376;1276;22905;-81
2023/10/10 02:34:09;;;;;;;93.30;8.80;;;;;;;4.06;100.00;99272.39;137354;1276;22161;-80
2023/10/10 02:37:41;;;;;;;89.90;8.70;;;;;;;4.08;100.00;99274.37;137345;1276;22132;-82
2023/10/10 02:40:42;;;;;;;61.10;8.90;;;;;;;4.10;100.00;99276.18;137396;1276;22287;-79
2023/10/10 02:43:55;;;;;;;93.40;8.80;;;;;;;4.12;100.00;99278.66;137331;1276;22351;-79
2023/10/10 02:46:57;;;;;;;59.90;8.10;;;;;;;4.12;100.00;99277.30;137371;1276;22081;-81
2023/10/10 02:50:09;;;;;;;118.90;8.00;;;;;;;4.14;100.00;99277.05;137376;1276;22530;-82
2023/10/10 02:53:15;;;;;;;169.40;8.80;;;;;;;4.15;100.00;99276.41;137348;1276;22066;-82
2023/10/10 02:56:20;;;;;;;116.70;8.30;;;;;;;4.15;100.00;99274.48;137394;1269;22103;-82
2023/10/10 02:59:23;;;;;;;;;;;;;;;4.09;100.00;99279.75;137360;1274;22771;-83
2023/10/10 03:02:29;;;;;;;122.40;8.00;;;;;;;4.01;100.00;99279.21;137363;1272;22095;-81
2023/10/10 03:05:43;;;;;;;84.80;7.30;;;;;;;3.97;100.00;99281.28;137353;1276;22029;-81
2023/10/10 03:08:51;;;;;;;110.80;8.30;;;;;;;3.95;100.00;99287.35;137336;1276;22068;-82
2023/10/10 03:12:04;;;;;;;126.20;7.10;;;;;;;3.96;100.00;99290.02;137363;1276;22146;-81
2023/10/10 03:15:14;;;;;;;37.90;5.90;;;;;;;3.94;100.00;99298.20;137349;1273;22123;-81
2023/10/10 03:18:27;;;;;;;75.90;9.00;;;;;;;3.90;100.00;99298.48;137373;1276;22170;-81
2023/10/10 03:21:44;;;;;;;38.70;5.90;;;;;;;3.84;100.00;99294.63;137332;1273;22096;-81
2023/10/10 03:25:08;;;;;;;69.10;6.20;;;;;;;3.82;100.00;99296.98;137329;1276;22075;-80
2023/10/10 03:28:20;;;;;;;27.20;5.60;;;;;;;3.80;100.00;99304.62;137332;1276;22112;-81
2023/10/10 03:31:38;;;;;;;57.70;10.30;;;;;;;3.79;100.00;99305.09;137376;1264;22058;-80
2023/10/10 03:34:45;;;;;;;26.80;5.60;;;;;;;3.70;100.00;99308.98;137413;1276;22152;-80
2023/10/10 03:37:54;;;;;;;38.30;5.50;;;;;;;3.67;100.00;99305.06;137411;1276;22074;-80
2023/10/10 05:24:29;;;;;;;24.60;6.80;;;;;;;3.68;100.00;99336.05;136852;1280;22236;-80
2023/10/10 05:27:32;;;;;;;43.20;6.90;;;;;;;3.77;100.00;99339.41;136875;1280;22166;-81
2023/10/10 05:30:42;;;;;;;36.30;7.80;;;;;;;3.88;100.00;99347.83;136825;1276;22901;-82
2023/10/10 05:33:47;;;;;;;47.80;7.80;;;;;;;3.95;100.00;99350.57;136834;1280;22565;-81
2023/10/10 05:36:52;;;;;;;14.60;8.10;;;;;;;3.99;100.00;99350.42;136869;1279;22192;-81
2023/10/10 05:39:56;;;;;;;51.80;8.80;;;;;;;4.11;100.00;99351.84;136827;1279;22869;-80
2023/10/10 05:43:02;;;;;;;22.70;8.80;;;;;;;4.23;100.00;99349.42;136829;1279;22191;-80
2023/10/10 05:46:05;;;;;;;23.10;9.20;;;;;;;4.33;100.00;99346.28;136810;1280;22192;-79
2023/10/10 05:49:08;;;;;;;27.20;9.00;;;;;;;4.36;100.00;99343.48;136849;1280;22214;-80
2023/10/10 05:52:12;;;;;;;27.40;9.60;;;;;;;4.41;100.00;99347.69;136750;1279;22178;-82
2023/10/10 05:55:14;;;;;;;37.80;9.90;;;;;;;4.53;100.00;99354.06;136782;1279;22935;-81
2023/10/10 05:58:17;;;;;;;37.20;9.20;;;;;;;4.58;100.00;99350.48;137007;1276;22329;-80
2023/10/10 06:01:20;;;;;;;33.40;8.60;;;;;;;4.58;100.00;99354.14;137209;1276;22507;-81
2023/10/10 06:04:22;;;;;;;26.10;9.60;;;;;;;4.60;100.00;99362.10;137218;1276;22147;-80
2023/10/10 06:10:41;;;;;;;45.50;11.40;;;;;;;4.82;100.00;99376.34;137250;1276;22152;-82
2023/10/10 06:13:44;;;;;;;37.50;10.90;;;;;;;4.92;100.00;99372.47;137199;1276;22164;-81
2023/10/10 06:16:47;;;;;;;33.60;11.30;;;;;;;5.05;100.00;99368.74;137204;1276;22114;-81
2023/10/10 06:19:50;;;;;;;243.40;22.70;;;;;;;5.17;100.00;99370.09;137237;1276;22693;-82
2023/10/10 06:22:55;;;;;;;37.40;11.90;;;;;;;5.30;100.00;99374.09;137253;1276;22103;-84
2023/10/10 06:25:58;;;;;;;85.60;15.30;;;;;;;5.40;100.00;99373.50;137310;1276;22147;-81
2023/10/10 06:29:02;;;;;;;24.20;11.00;;;;;;;5.48;100.00;99364.15;137350;1276;22619;-82
2023/10/10 06:32:10;;;;;;;25.00;10.20;;;;;;;5.64;100.00;99363.04;137316;1276;22171;-81
2023/10/10 06:35:26;;;;;;;14.60;9.90;;;;;;;5.75;100.00;99365.03;137355;1276;22600;-81
2023/10/10 06:38:29;;;;;;;29.60;10.80;;;;;;;5.85;100.00;99368.53;137340;1276;22515;-80
2023/10/10 06:41:37;;;;;;;20.00;10.20;;;;;;;5.96;100.00;99366.76;137294;1276;22127;-82
2023/10/10 06:44:40;;;;;;;17.70;10.40;;;;;;;6.04;100.00;99371.21;137365;1276;22156;-78
2023/10/10 06:47:44;;;;;;;25.20;12.00;;;;;;;6.14;100.00;99366.58;137401;1276;22459;-80
2023/10/10 06:50:49;;;;;;;48.90;12.00;;;;;;;6.37;100.00;99371.09;137395;1276;22150;-81
2023/10/10 06:53:54;;;;;;;14.30;10.70;;;;;;;6.59;100.00;99369.98;137369;1276;22101;-80
2023/10/10 06:57:05;;;;;;;14.90;10.60;;;;;;;6.71;100.00;99369.55;137339;1276;22266;-80
2023/10/10 07:00:20;;;;;;;13.10;11.00;;;;;;;6.80;100.00;99365.86;137320;1276;22142;-80
2023/10/10 07:03:30;;;;;;;18.70;11.20;;;;;;;6.91;100.00;99366.29;137236;1276;22151;-79
2023/10/10 07:06:34;;;;;;;15.40;11.50;;;;;;;6.93;100.00;99366.37;137255;1276;22097;-79
2023/10/10 07:09:37;;;;;;;16.40;10.90;;;;;;;7.08;100.00;99365.16;137229;1276;23005;-78
2023/10/10 07:12:40;;;;;;;49.70;13.00;;;;;;;7.18;100.00;99364.80;137214;1276;22129;-78
2023/10/10 07:15:42;;;;;;;11.90;10.50;;;;;;;7.30;100.00;99366.42;137256;1276;22148;-80
2023/10/10 07:18:45;;;;;;;15.00;11.10;;;;;;;7.48;100.00;99364.56;137296;1276;22134;-79
2023/10/10 07:21:47;;;;;;;23.00;10.60;;;;;;;7.59;100.00;99357.67;137289;1276;22100;-82
2023/10/10 07:24:55;;;;;;;17.10;11.00;;;;;;;7.77;100.00;99365.49;137321;1276;22120;-81
2023/10/10 07:28:00;;;;;;;18.50;11.20;;;;;;;7.97;100.00;99368.73;137265;1276;22643;-81
2023/10/10 07:31:07;;;;;;;15.00;11.20;;;;;;;8.25;100.00;99360.59;137234;1276;22160;-83
2023/10/10 07:34:15;;;;;;;13.00;10.70;;;;;;;8.34;100.00;99365.02;137225;1276;22051;-81
2023/10/10 07:37:18;;;;;;;12.20;10.90;;;;;;;8.36;100.00;99367.85;137305;1276;22144;-83
2023/10/10 07:40:21;;;;;;;16.80;11.50;;;;;;;8.42;100.00;99368.19;137283;1276;22156;-81
2023/10/10 07:43:27;;;;;;;13.70;10.70;;;;;;;8.52;100.00;99366.57;137260;1276;22248;-81
2023/10/10 07:46:35;;;;;;;11.20;10.00;;;;;;;8.71;100.00;99372.86;137261;1276;22110;-82
2023/10/10 07:49:40;;;;;;;12.10;10.30;;;;;;;8.68;100.00;99374.00;137271;1276;22346;-82
2023/10/10 07:52:42;;;;;;;;;;;;;;;8.82;100.00;99370.91;137273;1276;22265;-81
2023/10/10 07:56:00;;;;;;;47.10;12.00;;;;;;;8.86;100.00;99377.27;137251;1276;22159;-79
2023/10/10 07:59:05;;;;;;;11.80;7.80;;;;;;;8.94;100.00;99378.19;137284;1276;22516;-81
2023/10/10 08:02:24;;;;;;;7.60;6.90;;;;;;;8.98;100.00;99378.46;137236;1272;22471;-81
2023/10/10 08:05:29;;;;;;;8.20;7.40;;;;;;;9.03;100.00;99381.71;137225;1276;22118;-79
2023/10/10 08:08:35;;;;;;;8.80;7.60;;;;;;;9.10;100.00;99379.64;137215;1276;22565;-80
2023/10/10 08:11:38;;;;;;;7.80;7.00;;;;;;;9.21;100.00;99377.86;137236;1276;22544;-82
2023/10/10 08:14:41;;;;;;;7.70;6.80;;;;;;;9.22;100.00;99388.98;137261;1276;22124;-81
2023/10/10 08:17:51;;;;;;;10.20;7.80;;;;;;;9.23;100.00;99394.05;137222;1276;22582;-82
2023/10/10 08:21:10;;;;;;;9.60;7.50;;;;;;;9.33;100.00;99396.89;137275;1276;22879;-81
2023/10/10 08:24:16;;;;;;;9.60;8.60;;;;;;;9.25;100.00;99398.45;137269;1276;22656;-81
2023/10/10 08:27:19;;;;;;;8.80;7.90;;;;;;;9.17;100.00;99398.75;137221;1276;22554;-81
2023/10/10 08:30:25;;;;;;;9.50;8.40;;;;;;;9.02;100.00;99396.96;137233;1276;22658;-81
2023/10/10 08:33:32;;;;;;;9.40;8.50;;;;;;;9.12;100.00;99400.18;137219;1276;22547;-82
2023/10/10 08:36:35;;;;;;;13.20;8.60;;;;;;;9.16;100.00;99402.04;137259;1276;22110;-80
2023/10/10 08:39:41;;;;;;;8.60;7.60;;;;;;;9.28;100.00;99397.30;137296;1276;22124;-82
2023/10/10 08:42:44;;;;;;;12.80;8.50;;;;;;;9.35;100.00;99393.14;137255;1276;22159;-80
2023/10/10 08:45:54;;;;;;;39.30;11.50;;;;;;;9.45;100.00;99392.19;137298;1273;22194;-82
2023/10/10 08:48:57;;;;;;;15.00;9.50;;;;;;;9.63;100.00;99395.25;137304;1276;22560;-82
2023/10/10 08:52:02;;;;;;;332.40;27.40;;;;;;;9.72;100.00;99396.69;137299;1276;22125;-81
2023/10/10 08:55:10;;;;;;;17.10;10.30;;;;;;;9.84;100.00;99397.86;137305;1276;22184;-81
2023/10/10 08:58:12;;;;;;;10.50;9.00;;;;;;;9.87;100.00;99396.89;137302;1276;22105;-81
2023/10/10 09:01:18;;;;;;;10.50;9.00;;;;;;;9.83;100.00;99397.48;137196;1276;22141;-80
2023/10/10 09:04:21;;;;;;;90.90;13.20;;;;;;;9.76;100.00;99393.99;137212;1276;22247;-80
2023/10/10 09:07:27;;;;;;;123.60;15.00;;;;;;;9.65;100.00;99396.86;137211;1276;22118;-82
2023/10/10 09:10:37;;;;;;;10.50;9.40;;;;;;;9.64;100.00;99395.79;137224;1276;22107;-81
2023/10/10 09:13:39;;;;;;;14.80;9.60;;;;;;;9.77;100.00;99396.46;137280;1276;22640;-81
2023/10/10 09:16:47;;;;;;;11.50;10.30;;;;;;;9.89;100.00;99395.71;137290;1276;22121;-81
2023/10/10 09:19:50;;;;;;;12.00;10.80;;;;;;;9.92;100.00;99392.12;137306;1276;22114;-81
2023/10/10 09:22:56;;;;;;;12.40;10.40;;;;;;;9.93;100.00;99395.45;137294;1276;22170;-84
2023/10/10 09:26:09;;;;;;;11.90;10.70;;;;;;;10.13;100.00;99393.65;137317;1276;22287;-82
2023/10/10 09:29:18;;;;;;;16.30;10.80;;;;;;;10.19;100.00;99394.48;137337;1276;22408;-82
2023/10/10 09:32:27;;;;;;;59.90;13.80;;;;;;;10.40;100.00;99396.02;137343;1276;22061;-81
2023/10/10 09:35:30;;;;;;;12.00;10.00;;;;;;;10.60;100.00;99395.23;137308;1276;22091;-81
2023/10/10 09:38:35;;;;;;;21.70;10.20;;;;;;;10.82;100.00;99400.04;137316;1276;22117;-82
2023/10/10 09:42:00;;;;;;;;;;;;;;;11.10;100.00;99398.64;137312;1276;22414;-81
2023/10/10 09:45:27;;;;;;;9.30;8.40;;;;;;;11.52;100.00;99395.06;137336;1276;22146;-81
2023/10/10 09:48:46;;;;;;;61.30;12.30;;;;;;;11.83;100.00;99402.73;137330;1276;22857;-82
2023/10/10 09:55:30;;;;;;;15.80;7.80;;;;;;;12.08;100.00;99404.36;136835;1279;22371;-82
2023/10/10 09:58:41;;;;;;;10.70;8.50;;;;;;;12.06;100.00;99403.09;136912;1279;22310;-82
2023/10/10 10:01:47;;;;;;;16.60;8.90;;;;;;;11.89;100.00;99408.24;136914;1279;22265;-82
2023/10/10 10:04:53;;;;;;;9.10;8.20;;;;;;;11.93;100.00;99407.61;136524;1286;22179;-81
2023/10/10 10:07:59;;;;;;;11.00;8.60;;;;;;;12.23;100.00;99404.94;136507;1286;22714;-83
2023/10/10 10:11:09;;;;;;;14.20;9.40;;;;;;;12.40;100.00;99402.39;136504;1286;22135;-79
2023/10/10 10:14:14;;;;;;;11.50;8.80;;;;;;;12.38;100.00;99394.34;136477;1274;22244;-81
2023/10/10 10:17:18;;;;;;;10.70;8.70;;;;;;;12.21;100.00;99391.30;136470;1286;22292;-79
2023/10/10 10:20:21;;;;;;;8.90;8.00;;;;;;;12.09;100.00;99389.55;136412;1286;22258;-81
2023/10/10 10:23:26;;;;;;;9.60;8.50;;;;;;;11.93;100.00;99390.17;136395;1286;22238;-82
2023/10/10 10:26:31;;;;;;;18.70;10.20;;;;;;;12.05;100.00;99384.42;136436;1286;22764;-82
2023/10/10 10:29:36;;;;;;;13.60;10.00;;;;;;;12.30;100.00;99387.25;136678;1279;22420;-81
2023/10/10 10:32:39;;;;;;;10.80;9.60;;;;;;;12.41;100.00;99387.55;137102;1272;22117;-82
2023/10/10 10:35:44;;;;;;;14.00;10.30;;;;;;;12.50;100.00;99382.09;137222;1275;22130;-82
2023/10/10 10:42:12;;;;;;;32.20;10.40;;;;;;;12.41;100.00;99369.94;137212;1276;22432;-82
2023/10/10 10:45:15;;;;;;;10.70;9.60;;;;;;;12.51;100.00;99363.95;137294;1276;22125;-82
2023/10/10 10:48:29;;;;;;;10.70;9.50;;;;;;;12.62;100.00;99359.89;137289;1276;22755;-82
2023/10/10 10:51:41;;;;;;;13.80;9.90;;;;;;;12.69;100.00;99360.50;137305;1276;22189;-81
2023/10/10 10:54:45;;;;;;;11.70;10.40;;;;;;;12.74;100.00;99360.04;137263;1276;23176;-84
2023/10/10 10:57:47;;;;;;;127.10;16.70;;;;;;;12.83;100.00;99359.61;137257;1276;22168;-79
2023/10/10 11:01:00;;;;;;;11.10;9.70;;;;;;;12.88;100.00;99360.02;137270;1276;22132;-82
2023/10/10 11:04:05;;;;;;;11.50;9.30;;;;;;;12.90;100.00;99355.48;137265;1276;22135;-82
2023/10/10 11:07:08;;;;;;;12.10;9.20;;;;;;;12.98;100.00;99360.12;137274;1276;22137;-84
2023/10/10 11:10:11;;;;;;;296.20;29.90;;;;;;;13.01;100.00;99368.38;137293;1276;22134;-78
2023/10/10 11:13:14;;;;;;;18.50;10.00;;;;;;;12.95;100.00;99363.23;137293;1272;22110;-79
2023/10/10 11:16:17;;;;;;;119.90;18.50;;;;;;;13.05;100.00;99354.96;137308;1276;21987;-79
2023/10/10 11:19:25;;;;;;;23.70;10.80;;;;;;;13.00;100.00;99351.08;137286;1276;22212;-82
2023/10/10 11:22:40;;;;;;;273.40;25.80;;;;;;;12.98;100.00;99350.70;137340;1276;22126;-82
2023/10/10 11:25:46;;;;;;;31.30;11.90;;;;;;;13.10;100.00;99345.77;137271;1276;22156;-82
2023/10/10 11:28:49;;;;;;;13.70;9.50;;;;;;;13.24;100.00;99342.44;137268;1276;22171;-82
2023/10/10 11:32:06;;;;;;;12.90;9.70;;;;;;;13.36;100.00;99341.85;137320;1276;22613;-80
2023/10/10 11:35:17;;;;;;;59.60;12.80;;;;;;;13.31;100.00;99345.83;137238;1276;22157;-81
2023/10/10 11:38:34;;;;;;;12.80;9.40;;;;;;;13.38;100.00;99346.59;137251;1276;22219;-81
2023/10/10 11:41:37;;;;;;;10.60;9.30;;;;;;;13.45;100.00;99345.06;137191;1276;22135;-80
2023/10/10 11:44:41;;;;;;;10.60;9.50;;;;;;;13.54;100.00;99346.55;137139;1276;22383;-79
2023/10/10 11:47:44;;;;;;;17.60;10.40;;;;;;;13.66;100.00;99337.36;137166;1276;22144;-80
2023/10/10 11:50:49;;;;;;;14.80;10.10;;;;;;;13.57;100.00;99339.39;137153;1276;22156;-80
2023/10/10 11:53:54;;;;;;;24.80;10.20;;;;;;;13.50;100.00;99335.84;137207;1276;22520;-79
2023/10/10 11:56:58;;;;;;;12.40;10.00;;;;;;;13.56;100.00;99333.44;137218;1276;22110;-81
2023/10/10 12:00:07;;;;;;;200.90;20.50;;;;;;;13.48;100.00;99330.77;137209;1276;22124;-83
2023/10/10 12:03:10;;;;;;;12.20;9.50;;;;;;;13.42;100.00;99331.23;137131;1276;22109;-82
2023/10/10 12:06:17;;;;;;;12.20;9.50;;;;;;;13.46;100.00;99329.34;137131;1276;22123;-82
2023/10/10 12:09:20;;;;;;;75.20;12.60;;;;;;;13.51;100.00;99325.54;137185;1276;22586;-81
2023/10/10 12:12:26;;;;;;;43.60;11.30;;;;;;;13.47;100.00;99324.63;137156;1276;22124;-82
2023/10/10 12:15:31;;;;;;;14.60;8.50;;;;;;;13.36;100.00;99323.15;137118;1276;22700;-79
2023/10/10 12:18:33;;;;;;;11.60;9.50;;;;;;;13.23;100.00;99319.36;137146;1276;22123;-80
2023/10/10 12:21:36;;;;;;;25.80;10.60;;;;;;;13.31;100.00;99318.55;137141;1276;22087;-79
2023/10/10 12:24:39;;;;;;;12.00;8.70;;;;;;;13.56;100.00;99317.17;137164;1276;22602;-78
2023/10/10 12:27:46;;;;;;;9.70;8.50;;;;;;;13.69;100.00;99317.45;137135;1276;22171;-79
2023/10/10 12:30:48;;;;;;;9.00;8.10;;;;;;;13.73;100.00;99312.23;137179;1272;22108;-79
2023/10/10 12:33:53;;;;;;;10.80;9.70;;;;;;;13.58;100.00;99316.84;137165;1276;22116;-80
2023/10/10 12:36:59;;;;;;;22.10;10.70;;;;;;;13.42;100.00;99318.30;137189;1276;22616;-79
2023/10/10 12:40:08;;;;;;;10.70;8.50;;;;;;;13.32;100.00;99321.89;137158;1276;22782;-80
2023/10/10 12:43:12;;;;;;;19.50;9.20;;;;;;;13.22;100.00;99318.83;137284;1276;22401;-79
2023/10/10 12:46:17;;;;;;;26.00;10.90;;;;;;;13.23;100.00;99315.52;137237;1276;22129;-79
2023/10/10 12:49:28;;;;;;;10.90;9.80;;;;;;;13.36;100.00;99308.46;137208;1276;22122;-79
2023/10/10 12:52:35;;;;;;;12.10;9.60;;;;;;;13.50;100.00;99307.34;137205;1276;22590;-78
2023/10/10 12:55:46;;;;;;;361.50;32.00;;;;;;;13.63;100.00;99308.84;137165;1276;22157;-79
2023/10/10 12:58:52;;;;;;;41.60;12.00;;;;;;;13.64;100.00;99308.14;137190;1276;22736;-78
2023/10/10 13:01:56;;;;;;;27.50;11.00;;;;;;;13.56;100.00;99309.14;137176;1276;22565;-78
2023/10/10 13:04:58;;;;;;;27.10;11.10;;;;;;;13.61;100.00;99309.53;137193;1276;22151;-81
2023/10/10 13:08:06;;;;;;;13.10;10.70;;;;;;;13.66;100.00;99303.79;137176;1276;22107;-80
2023/10/10 13:11:12;;;;;;;68.90;14.70;;;;;;;13.77;100.00;99296.33;137176;1276;22145;-80
2023/10/10 13:14:18;;;;;;;34.20;10.90;;;;;;;13.89;100.00;99290.48;137140;1276;22097;-78
2023/10/10 13:17:30;;;;;;;12.90;9.70;;;;;;;13.95;100.00;99286.85;137163;1276;22111;-78
2023/10/10 13:20:32;;;;;;;14.30;8.80;;;;;;;13.88;100.00;99282.08;137121;1273;23060;-77
2023/10/10 13:23:41;;;;;;;13.20;9.80;;;;;;;13.80;100.00;99282.89;137144;1276;22087;-78
2023/10/10 13:26:45;;;;;;;10.10;9.00;;;;;;;13.65;100.00;99277.02;137207;1276;22243;-78
2023/10/10 13:29:47;;;;;;;14.30;10.10;;;;;;;13.53;100.00;99280.96;137278;1276;22536;-78
2023/10/10 13:32:51;;;;;;;11.70;9.50;;;;;;;13.41;100.00;99281.05;137268;1276;22699;-79
2023/10/10 13:35:53;;;;;;;34.20;11.00;;;;;;;13.42;100.00;99284.03;137302;1261;22104;-80
2023/10/10 13:38:59;;;;;;;13.20;10.10;;;;;;;13.50;100.00;99281.11;137352;1276;22297;-81
2023/10/10 13:42:06;;;;;;;17.10;9.40;;;;;;;13.58;100.00;99282.23;137322;1276;22126;-79
2023/10/10 13:45:12;;;;;;;15.00;10.20;;;;;;;13.59;100.00;99283.80;137342;1276;22275;-79
2023/10/10 13:48:17;;;;;;;48.90;12.20;;;;;;;13.53;100.00;99280.96;137284;1266;22132;-79
2023/10/10 13:51:20;;;;;;;12.90;9.80;;;;;;;13.50;100.00;99283.05;137296;1276;22125;-78
2023/10/10 13:54:28;;;;;;;44.00;12.00;;;;;;;13.49;100.00;99280.59;137283;1276;22119;-78
2023/10/10 13:57:30;;;;;;;18.70;10.80;;;;;;;13.48;100.00;99281.10;136976;1276;258594;-79
2023/10/10 14:00:34;;;;;;;70.60;12.40;;;;;;;13.44;100.00;99279.15;137196;1276;22932;-78
2023/10/10 14:03:36;;;;;;;22.90;11.20;;;;;;;13.37;100.00;99277.71;137204;1276;22104;-79
2023/10/10 14:06:46;;;;;;;21.30;10.10;;;;;;;13.34;100.00;99276.98;137217;1276;22288;-79
2023/10/10 14:09:49;;;;;;;58.30;11.90;;;;;;;13.31;100.00;99280.45;137232;1276;22159;-79
2023/10/10 14:12:51;;;;;;;15.80;11.40;;;;;;;13.25;100.00;99280.40;137183;1276;22170;-79
2023/10/10 14:15:57;;;;;;;18.40;10.50;;;;;;;13.19;100.00;99277.39;137236;1276;22160;-79
2023/10/10 14:19:01;;;;;;;20.70;11.20;;;;;;;13.14;100.00;99280.11;137267;1276;22881;-79
2023/10/10 14:22:10;;;;;;;41.30;10.30;;;;;;;13.10;100.00;99281.64;137204;1276;22563;-81
2023/10/10 14:25:13;;;;;;;14.80;9.60;;;;;;;13.06;100.00;99285.98;137263;1276;22113;-79
2023/10/10 14:28:16;;;;;;;14.50;10.10;;;;;;;12.97;100.00;99294.08;137200;1276;22110;-79
2023/10/10 14:31:21;;;;;;;13.40;10.50;;;;;;;12.89;100.00;99295.73;137214;1276;22111;-78
2023/10/10 14:34:25;;;;;;;12.00;10.00;;;;;;;12.79;100.00;99301.59;137205;1276;22154;-78
2023/10/10 14:37:31;;;;;;;14.60;10.10;;;;;;;12.72;100.00;99301.86;137220;1276;22126;-79
2023/10/10 14:40:35;;;;;;;17.50;11.60;;;;;;;12.65;100.00;99301.61;137221;1276;22095;-80
2023/10/10 14:43:38;;;;;;;23.90;12.00;;;;;;;12.57;100.00;99299.95;137267;1276;22602;-79
2023/10/10 14:46:40;;;;;;;29.00;11.90;;;;;;;12.49;100.00;99295.33;137269;1276;22103;-78
2023/10/10 14:49:43;;;;;;;28.00;11.70;;;;;;;12.43;100.00;99298.21;137259;1276;22142;-79
2023/10/10 14:52:48;;;;;;;13.40;10.50;;;;;;;12.37;100.00;99298.16;137241;1276;22144;-79
2023/10/10 14:55:51;;;;;;;13.20;9.90;;;;;;;12.32;100.00;99295.64;137217;1276;22534;-79
2023/10/10 14:58:54;;;;;;;15.60;10.30;;;;;;;12.30;100.00;99295.10;137220;1276;22168;-79
2023/10/10 15:01:59;;;;;;;18.20;10.60;;;;;;;12.28;100.00;99288.45;137245;1276;22877;-80
2023/10/10 15:05:09;;;;;;;15.30;11.90;;;;;;;12.22;100.00;99283.83;137278;1276;22474;-79
2023/10/10 15:08:13;;;;;;;23.30;14.10;;;;;;;12.14;100.00;99288.42;137233;1276;22584;-80
2023/10/10 15:11:16;;;;;;;22.80;13.70;;;;;;;12.09;100.00;99291.67;137276;1276;22615;-79
2023/10/10 15:14:19;;;;;;;30.10;13.10;;;;;;;12.05;100.00;99286.73;137307;1276;22131;-80
2023/10/10 15:17:21;;;;;;;28.80;15.00;;;;;;;12.00;100.00;99287.36;137315;1276;22035;-80
2023/10/10 15:20:26;;;;;;;30.60;14.10;;;;;;;11.94;100.00;99288.86;137330;1276;22162;-80
2023/10/10 15:23:29;;;;;;;24.80;14.80;;;;;;;11.91;100.00;99287.08;137279;1276;22127;-79
2023/10/10 15:26:34;;;;;;;43.70;14.60;;;;;;;11.88;100.00;99280.05;137255;1276;22110;-79
2023/10/10 15:29:39;;;;;;;25.10;16.00;;;;;;;11.84;100.00;99279.48;137250;1276;22650;-80
2023/10/10 15:32:46;;;;;;;27.40;17.20;;;;;;;11.79;100.00;99283.08;137283;1276;22120;-80
2023/10/10 15:35:52;;;;;;;23.00;15.00;;;;;;;11.76;100.00;99285.61;137287;1276;22544;-80
2023/10/10 15:38:54;;;;;;;23.60;15.70;;;;;;;11.70;100.00;99291.46;137275;1276;22211;-80
2023/10/10 15:41:59;;;;;;;21.70;14.10;;;;;;;11.63;100.00;99286.81;137269;1276;22129;-80
2023/10/10 15:45:04;;;;;;;;;;;;;;;11.57;100.00;99290.04;137295;1276;22394;-80
2023/10/10 15:48:18;;;;;;;;;;;;;;;11.51;100.00;99302.14;137315;1276;22275;-80
2023/10/10 15:51:21;;;;;;;;;;;;;;;11.45;100.00;99303.64;137291;1276;22193;-80
2023/10/10 15:54:29;;;;;;;;;;;;;;;11.42;100.00;99309.33;137259;1276;22214;-80
2023/10/10 15:57:31;;;;;;;;;;;;;;;11.39;100.00;99306.84;137269;1276;22207;-80
2023/10/10 16:00:33;;;;;;;;;;;;;;;11.35;100.00;99299.64;137247;1276;22614;-80
2023/10/10 16:03:36;;;;;;;;;;;;;;;11.32;100.00;99301.33;137285;1276;22266;-80